createdAt,value
2017-08-12T00:00:43.481Z,14.95
2017-08-12T00:01:43.462Z,14.98
2017-08-12T00:02:43.446Z,14.97
2017-08-12T00:03:43.416Z,15.01
2017-08-12T00:04:43.398Z,14.87
2017-08-12T00:05:43.374Z,15
2017-08-12T00:06:43.354Z,15
2017-08-12T00:07:43.037Z,15
2017-08-12T00:08:43.309Z,14.94
2017-08-12T00:09:43.335Z,14.86
2017-08-12T00:10:43.278Z,14.97
2017-08-12T00:11:42.948Z,14.91
2017-08-12T00:12:43.228Z,14.94
2017-08-12T00:13:43.205Z,14.86
2017-08-12T00:14:43.182Z,14.93
2017-08-12T00:15:42.876Z,14.93
2017-08-12T00:16:43.151Z,14.95
2017-08-12T00:17:43.120Z,14.94
2017-08-12T00:18:43.093Z,14.97
2017-08-12T00:19:43.085Z,14.98
2017-08-12T00:20:43.052Z,14.9
2017-08-12T00:21:42.736Z,14.85
2017-08-12T00:22:43.011Z,14.86
2017-08-12T00:23:42.747Z,14.86
2017-08-12T00:24:42.964Z,14.85
2017-08-12T00:25:42.943Z,14.85
2017-08-12T00:26:42.936Z,14.86
2017-08-12T00:27:42.912Z,14.85
2017-08-12T00:28:42.887Z,14.87
2017-08-12T00:29:42.862Z,14.87
2017-08-12T00:30:42.841Z,14.97
2017-08-12T00:31:42.875Z,14.9
2017-08-12T00:32:42.796Z,14.9
2017-08-12T00:33:42.769Z,14.94
2017-08-12T00:34:42.760Z,14.85
2017-08-12T00:35:42.737Z,14.86
2017-08-12T00:36:42.963Z,14.91
2017-08-12T00:37:42.688Z,14.85
2017-08-12T00:38:42.669Z,14.9
2017-08-12T00:39:42.647Z,14.86
2017-08-12T00:40:42.626Z,14.87
2017-08-12T00:41:42.609Z,14.85
2017-08-12T00:42:42.592Z,14.87
2017-08-12T00:43:42.594Z,14.83
2017-08-12T00:44:42.589Z,14.8
2017-08-12T00:45:42.516Z,14.87
2017-08-12T00:46:42.253Z,14.78
2017-08-12T00:47:42.475Z,14.79
2017-08-12T00:48:42.464Z,14.83
2017-08-12T00:49:42.433Z,14.82
2017-08-12T00:50:42.113Z,14.83
2017-08-12T00:51:42.390Z,14.83
2017-08-12T00:52:42.066Z,14.74
2017-08-12T00:53:42.353Z,14.8
2017-08-12T00:54:42.327Z,14.78
2017-08-12T00:55:42.312Z,14.8
2017-08-12T00:56:42.297Z,14.79
2017-08-12T00:57:42.262Z,14.83
2017-08-12T00:58:42.242Z,14.72
2017-08-12T00:59:42.219Z,14.83
2017-08-12T01:00:42.194Z,14.8
2017-08-12T01:01:42.177Z,14.8
2017-08-12T01:02:42.204Z,14.8
2017-08-12T01:03:42.130Z,14.78
2017-08-12T01:04:42.109Z,14.79
2017-08-12T01:05:42.090Z,14.78
2017-08-12T01:06:42.102Z,14.83
2017-08-12T01:07:42.095Z,14.74
2017-08-12T01:08:42.022Z,14.79
2017-08-12T01:09:42.005Z,14.71
2017-08-12T01:10:41.984Z,14.69
2017-08-12T01:11:41.663Z,14.75
2017-08-12T01:12:41.987Z,14.79
2017-08-12T01:13:41.917Z,14.78
2017-08-12T01:14:41.897Z,14.79
2017-08-12T01:15:41.873Z,14.8
2017-08-12T01:16:41.860Z,14.8
2017-08-12T01:17:41.831Z,14.82
2017-08-12T01:18:41.816Z,14.79
2017-08-12T01:19:41.791Z,14.83
2017-08-12T01:20:41.973Z,14.83
2017-08-12T01:21:41.445Z,14.75
2017-08-12T01:22:41.724Z,14.82
2017-08-12T01:23:41.706Z,14.86
2017-08-12T01:24:41.677Z,14.85
2017-08-12T01:25:41.661Z,14.86
2017-08-12T01:26:41.636Z,14.79
2017-08-12T01:27:41.677Z,14.75
2017-08-12T01:28:41.303Z,14.78
2017-08-12T01:29:41.580Z,14.85
2017-08-12T01:30:41.252Z,14.78
2017-08-12T01:31:41.530Z,14.75
2017-08-12T01:32:41.514Z,14.85
2017-08-12T01:33:41.491Z,14.82
2017-08-12T01:34:41.171Z,14.83
2017-08-12T01:35:41.450Z,14.8
2017-08-12T01:36:41.422Z,14.74
2017-08-12T01:37:41.408Z,14.78
2017-08-12T01:38:41.379Z,14.72
2017-08-12T01:39:41.364Z,14.69
2017-08-12T01:40:41.409Z,14.66
2017-08-12T01:41:41.328Z,14.63
2017-08-12T01:42:41.297Z,14.64
2017-08-12T01:43:41.282Z,14.61
2017-08-12T01:44:41.255Z,14.6
2017-08-12T01:45:41.234Z,14.72
2017-08-12T01:46:41.212Z,14.63
2017-08-12T01:47:41.191Z,14.67
2017-08-12T01:48:41.195Z,14.63
2017-08-12T01:49:41.245Z,14.69
2017-08-12T01:50:41.123Z,14.64
2017-08-12T01:51:41.110Z,14.64
2017-08-12T01:52:41.128Z,14.69
2017-08-12T01:53:41.061Z,14.64
2017-08-12T01:54:40.986Z,14.61
2017-08-12T01:55:41.019Z,14.64
2017-08-12T01:56:40.990Z,14.54
2017-08-12T01:57:40.978Z,14.56
2017-08-12T01:58:40.960Z,14.52
2017-08-12T01:59:40.626Z,14.56
2017-08-12T02:00:40.915Z,14.59
2017-08-12T02:01:40.888Z,14.59
2017-08-12T02:02:40.868Z,14.57
2017-08-12T02:03:40.851Z,14.61
2017-08-12T02:04:40.830Z,14.59
2017-08-12T02:05:40.806Z,14.61
2017-08-12T02:06:40.784Z,14.59
2017-08-12T02:07:40.761Z,14.6
2017-08-12T02:08:40.435Z,14.6
2017-08-12T02:09:40.722Z,14.59
2017-08-12T02:10:40.745Z,14.61
2017-08-12T02:11:40.731Z,14.53
2017-08-12T02:12:40.652Z,14.56
2017-08-12T02:13:40.627Z,14.53
2017-08-12T02:14:40.612Z,14.52
2017-08-12T02:15:40.588Z,14.57
2017-08-12T02:16:40.568Z,14.54
2017-08-12T02:17:40.547Z,14.56
2017-08-12T02:18:40.524Z,14.6
2017-08-12T02:19:40.500Z,14.6
2017-08-12T02:20:40.534Z,14.59
2017-08-12T02:21:40.453Z,14.52
2017-08-12T02:22:40.436Z,14.53
2017-08-12T02:23:40.418Z,14.54
2017-08-12T02:24:40.402Z,14.53
2017-08-12T02:25:40.374Z,14.49
2017-08-12T02:26:40.398Z,14.53
2017-08-12T02:27:40.334Z,14.54
2017-08-12T02:28:40.300Z,14.46
2017-08-12T02:29:39.984Z,14.41
2017-08-12T02:30:40.263Z,14.42
2017-08-12T02:31:40.238Z,14.41
2017-08-12T02:32:40.216Z,14.44
2017-08-12T02:33:40.199Z,14.45
2017-08-12T02:34:40.184Z,14.39
2017-08-12T02:35:40.159Z,14.44
2017-08-12T02:36:39.843Z,14.38
2017-08-12T02:37:40.107Z,14.41
2017-08-12T02:38:40.099Z,14.45
2017-08-12T02:39:40.075Z,14.42
2017-08-12T02:40:40.104Z,14.39
2017-08-12T02:41:40.023Z,14.35
2017-08-12T02:42:39.701Z,14.38
2017-08-12T02:43:39.986Z,14.45
2017-08-12T02:44:39.963Z,14.36
2017-08-12T02:45:39.965Z,14.41
2017-08-12T02:46:39.615Z,14.34
2017-08-12T02:47:39.899Z,14.29
2017-08-12T02:48:39.870Z,14.29
2017-08-12T02:49:39.847Z,14.3
2017-08-12T02:50:39.836Z,14.3
2017-08-12T02:51:39.867Z,14.44
2017-08-12T02:52:39.813Z,14.29
2017-08-12T02:53:39.775Z,14.29
2017-08-12T02:54:39.745Z,14.27
2017-08-12T02:55:39.724Z,14.29
2017-08-12T02:56:39.705Z,14.34
2017-08-12T02:57:39.678Z,14.31
2017-08-12T02:58:39.654Z,14.3
2017-08-12T02:59:39.639Z,14.31
2017-08-12T03:00:39.613Z,14.29
2017-08-12T03:01:39.590Z,14.27
2017-08-12T03:02:39.573Z,14.34
2017-08-12T03:03:39.562Z,14.35
2017-08-12T03:04:39.528Z,14.39
2017-08-12T03:05:39.506Z,14.36
2017-08-12T03:06:39.482Z,14.31
2017-08-12T03:07:39.470Z,14.34
2017-08-12T03:08:39.146Z,14.29
2017-08-12T03:09:39.422Z,14.29
2017-08-12T03:10:39.401Z,14.36
2017-08-12T03:11:39.077Z,14.27
2017-08-12T03:12:39.359Z,14.19
2017-08-12T03:13:39.382Z,14.31
2017-08-12T03:14:39.313Z,14.21
2017-08-12T03:15:39.291Z,14.3
2017-08-12T03:16:39.270Z,14.24
2017-08-12T03:17:39.255Z,14.24
2017-08-12T03:18:39.222Z,14.2
2017-08-12T03:19:39.205Z,14.27
2017-08-12T03:20:39.183Z,14.2
2017-08-12T03:21:39.162Z,14.27
2017-08-12T03:22:38.837Z,14.3
2017-08-12T03:23:39.119Z,14.29
2017-08-12T03:24:39.094Z,14.26
2017-08-12T03:25:39.071Z,14.24
2017-08-12T03:26:39.052Z,14.24
2017-08-12T03:27:39.033Z,14.23
2017-08-12T03:28:39.013Z,14.19
2017-08-12T03:29:38.986Z,14.21
2017-08-12T03:30:38.966Z,14.19
2017-08-12T03:31:38.946Z,14.3
2017-08-12T03:32:38.972Z,14.24
2017-08-12T03:33:38.902Z,14.23
2017-08-12T03:34:38.878Z,14.2
2017-08-12T03:35:38.863Z,14.13
2017-08-12T03:36:38.835Z,14.21
2017-08-12T03:37:38.821Z,14.16
2017-08-12T03:38:38.792Z,14.13
2017-08-12T03:39:38.772Z,14.26
2017-08-12T03:40:38.747Z,14.23
2017-08-12T03:41:38.730Z,14.2
2017-08-12T03:42:38.712Z,14.21
2017-08-12T03:43:38.692Z,14.13
2017-08-12T03:44:38.672Z,14.2
2017-08-12T03:45:38.337Z,14.13
2017-08-12T03:46:38.616Z,14.11
2017-08-12T03:47:38.597Z,14.11
2017-08-12T03:48:38.580Z,14.19
2017-08-12T03:49:38.554Z,14.16
2017-08-12T03:50:38.531Z,14.21
2017-08-12T03:51:38.518Z,14.16
2017-08-12T03:52:38.494Z,14.11
2017-08-12T03:53:38.477Z,14.24
2017-08-12T03:54:38.446Z,14.05
2017-08-12T03:55:38.427Z,14.06
2017-08-12T03:56:38.104Z,14.06
2017-08-12T03:57:38.383Z,14.08
2017-08-12T03:58:38.615Z,14.08
2017-08-12T03:59:38.344Z,14.06
2017-08-12T04:00:38.325Z,14.11
2017-08-12T04:01:38.298Z,14.21
2017-08-12T04:02:38.270Z,14.09
2017-08-12T04:03:38.249Z,14.12
2017-08-12T04:04:38.483Z,14.17
2017-08-12T04:05:38.204Z,14.05
2017-08-12T04:06:38.189Z,14.12
2017-08-12T04:07:38.168Z,14.09
2017-08-12T04:08:38.136Z,14.12
2017-08-12T04:09:38.127Z,14.12
2017-08-12T04:10:38.102Z,14.11
2017-08-12T04:11:38.079Z,14.12
2017-08-12T04:12:38.058Z,14.2
2017-08-12T04:13:38.041Z,14.09
2017-08-12T04:14:38.012Z,14.16
2017-08-12T04:15:37.991Z,14.09
2017-08-12T04:16:37.979Z,14.21
2017-08-12T04:17:37.958Z,14.08
2017-08-12T04:18:37.923Z,14.12
2017-08-12T04:19:37.948Z,14.2
2017-08-12T04:20:37.889Z,14.16
2017-08-12T04:21:37.863Z,14.09
2017-08-12T04:22:37.839Z,14.19
2017-08-12T04:23:37.814Z,14.21
2017-08-12T04:24:37.802Z,14.27
2017-08-12T04:25:37.472Z,14.2
2017-08-12T04:26:37.749Z,14.2
2017-08-12T04:27:37.732Z,14.17
2017-08-12T04:28:37.710Z,14.16
2017-08-12T04:29:37.690Z,14.24
2017-08-12T04:30:37.666Z,14.26
2017-08-12T04:31:37.645Z,14.17
2017-08-12T04:32:37.322Z,14.12
2017-08-12T04:33:37.595Z,14.26
2017-08-12T04:34:37.629Z,14.2
2017-08-12T04:35:37.555Z,14.24
2017-08-12T04:36:37.539Z,14.29
2017-08-12T04:37:37.514Z,14.29
2017-08-12T04:38:37.787Z,14.29
2017-08-12T04:39:37.473Z,14.27
2017-08-12T04:40:37.441Z,14.3
2017-08-12T04:41:37.475Z,14.29
2017-08-12T04:42:37.465Z,14.35
2017-08-12T04:43:37.082Z,14.35
2017-08-12T04:44:37.367Z,14.38
2017-08-12T04:45:37.393Z,14.34
2017-08-12T04:46:37.323Z,14.29
2017-08-12T04:47:37.341Z,14.29
2017-08-12T04:48:36.975Z,14.39
2017-08-12T04:49:37.257Z,14.41
2017-08-12T04:50:37.234Z,14.46
2017-08-12T04:51:37.216Z,14.39
2017-08-12T04:52:37.210Z,14.45
2017-08-12T04:53:36.568Z,14.48
2017-08-12T04:54:37.149Z,14.44
2017-08-12T04:55:37.128Z,14.44
2017-08-12T04:56:37.101Z,14.41
2017-08-12T04:57:37.086Z,14.42
2017-08-12T04:58:37.062Z,14.41
2017-08-12T04:59:37.041Z,14.49
2017-08-12T05:00:37.024Z,14.38
2017-08-12T05:01:36.997Z,14.38
2017-08-12T05:02:36.971Z,14.53
2017-08-12T05:03:36.950Z,14.54
2017-08-12T05:04:36.938Z,14.59
2017-08-12T05:05:36.918Z,14.56
2017-08-12T05:06:36.886Z,14.6
2017-08-12T05:07:36.869Z,14.57
2017-08-12T05:08:36.846Z,14.59
2017-08-12T05:09:36.821Z,14.6
2017-08-12T05:10:36.812Z,14.63
2017-08-12T05:11:36.787Z,14.63
2017-08-12T05:12:36.767Z,14.59
2017-08-12T05:13:36.740Z,14.61
2017-08-12T05:14:36.714Z,14.61
2017-08-12T05:15:36.694Z,14.64
2017-08-12T05:16:36.671Z,14.59
2017-08-12T05:17:36.645Z,14.59
2017-08-12T05:18:36.685Z,14.57
2017-08-12T05:19:36.638Z,14.59
2017-08-12T05:20:36.586Z,14.64
2017-08-12T05:21:36.267Z,14.59
2017-08-12T05:22:36.545Z,14.66
2017-08-12T05:23:36.580Z,14.64
2017-08-12T05:24:36.499Z,14.61
2017-08-12T05:25:36.483Z,14.57
2017-08-12T05:26:36.461Z,14.6
2017-08-12T05:27:36.461Z,14.61
2017-08-12T05:28:36.421Z,14.66
2017-08-12T05:29:36.403Z,14.53
2017-08-12T05:30:36.373Z,14.59
2017-08-12T05:31:36.352Z,14.48
2017-08-12T05:32:36.331Z,14.56
2017-08-12T05:33:36.308Z,14.57
2017-08-12T05:34:36.306Z,14.59
2017-08-12T05:35:35.967Z,14.54
2017-08-12T05:36:36.245Z,14.49
2017-08-12T05:37:35.929Z,14.61
2017-08-12T05:38:36.454Z,14.64
2017-08-12T05:39:36.180Z,14.61
2017-08-12T05:40:36.164Z,14.67
2017-08-12T05:41:36.138Z,14.64
2017-08-12T05:42:36.173Z,14.6
2017-08-12T05:43:36.400Z,14.63
2017-08-12T05:44:36.072Z,14.59
2017-08-12T05:45:36.063Z,14.6
2017-08-12T05:46:36.286Z,14.53
2017-08-12T05:47:36.041Z,14.6
2017-08-12T05:48:36.000Z,14.6
2017-08-12T05:49:35.994Z,14.69
2017-08-12T05:50:35.946Z,14.54
2017-08-12T05:51:35.928Z,14.53
2017-08-12T05:52:35.900Z,14.64
2017-08-12T05:53:35.887Z,14.6
2017-08-12T05:54:35.861Z,14.63
2017-08-12T05:55:35.849Z,14.59
2017-08-12T05:56:35.824Z,14.64
2017-08-12T05:57:35.794Z,14.67
2017-08-12T05:58:35.775Z,14.64
2017-08-12T05:59:35.752Z,14.61
2017-08-12T06:00:35.735Z,14.67
2017-08-12T06:01:35.710Z,14.61
2017-08-12T06:02:35.692Z,14.63
2017-08-12T06:03:35.363Z,14.67
2017-08-12T06:04:35.648Z,14.71
2017-08-12T06:05:35.624Z,14.61
2017-08-12T06:06:35.605Z,14.78
2017-08-12T06:07:35.578Z,14.74
2017-08-12T06:08:35.558Z,14.82
2017-08-12T06:09:35.544Z,14.79
2017-08-12T06:10:35.520Z,14.74
2017-08-12T06:11:35.497Z,14.83
2017-08-12T06:12:35.486Z,14.69
2017-08-12T06:13:35.501Z,14.82
2017-08-12T06:14:35.434Z,14.85
2017-08-12T06:15:35.409Z,14.82
2017-08-12T06:16:35.395Z,14.75
2017-08-12T06:17:35.068Z,14.69
2017-08-12T06:18:35.351Z,14.75
2017-08-12T06:19:35.332Z,14.82
2017-08-12T06:20:35.304Z,14.87
2017-08-12T06:21:35.331Z,14.86
2017-08-12T06:22:35.272Z,14.78
2017-08-12T06:23:35.241Z,14.82
2017-08-12T06:24:34.924Z,14.85
2017-08-12T06:25:34.946Z,14.79
2017-08-12T06:26:34.881Z,14.8
2017-08-12T06:27:35.156Z,14.79
2017-08-12T06:28:35.134Z,14.67
2017-08-12T06:29:34.805Z,14.66
2017-08-12T06:30:35.104Z,14.59
2017-08-12T06:31:35.121Z,14.64
2017-08-12T06:32:35.048Z,14.63
2017-08-12T06:33:35.026Z,14.57
2017-08-12T06:34:34.998Z,14.56
2017-08-12T06:35:34.685Z,14.54
2017-08-12T06:36:34.961Z,14.54
2017-08-12T06:37:34.940Z,14.54
2017-08-12T06:38:34.914Z,14.59
2017-08-12T06:39:34.908Z,14.53
2017-08-12T06:40:34.876Z,14.54
2017-08-12T06:41:34.851Z,14.56
2017-08-12T06:42:34.847Z,14.59
2017-08-12T06:43:34.808Z,14.49
2017-08-12T06:44:34.785Z,14.53
2017-08-12T06:45:34.767Z,14.52
2017-08-12T06:46:34.460Z,14.46
2017-08-12T06:47:34.718Z,14.52
2017-08-12T06:48:34.761Z,14.48
2017-08-12T06:49:34.684Z,14.49
2017-08-12T06:50:34.658Z,14.53
2017-08-12T06:51:34.637Z,14.53
2017-08-12T06:52:34.321Z,14.52
2017-08-12T06:53:34.586Z,14.52
2017-08-12T06:54:34.571Z,14.53
2017-08-12T06:55:34.654Z,14.53
2017-08-12T06:56:34.524Z,14.52
2017-08-12T06:57:34.507Z,14.49
2017-08-12T06:58:34.186Z,14.48
2017-08-12T06:59:34.713Z,14.45
2017-08-12T07:00:34.447Z,14.48
2017-08-12T07:01:34.419Z,14.54
2017-08-12T07:02:34.417Z,14.42
2017-08-12T07:03:34.380Z,14.44
2017-08-12T07:04:34.362Z,14.39
2017-08-12T07:05:34.334Z,14.42
2017-08-12T07:06:34.017Z,14.41
2017-08-12T07:07:34.302Z,14.42
2017-08-12T07:08:34.266Z,14.42
2017-08-12T07:09:34.265Z,14.54
2017-08-12T07:10:34.226Z,14.53
2017-08-12T07:11:34.205Z,14.49
2017-08-12T07:12:33.878Z,14.59
2017-08-12T07:13:34.167Z,14.57
2017-08-12T07:14:34.143Z,14.57
2017-08-12T07:15:34.143Z,14.57
2017-08-12T07:16:33.796Z,14.54
2017-08-12T07:17:34.325Z,14.56
2017-08-12T07:18:33.758Z,14.54
2017-08-12T07:19:34.035Z,14.54
2017-08-12T07:20:34.014Z,14.54
2017-08-12T07:21:33.987Z,14.56
2017-08-12T07:22:33.987Z,14.56
2017-08-12T07:23:33.946Z,14.53
2017-08-12T07:24:33.929Z,14.52
2017-08-12T07:25:33.905Z,14.54
2017-08-12T07:26:33.892Z,14.53
2017-08-12T07:27:33.861Z,14.49
2017-08-12T07:28:33.939Z,14.52
2017-08-12T07:29:33.815Z,14.53
2017-08-12T07:30:33.542Z,14.56
2017-08-12T07:31:33.772Z,14.49
2017-08-12T07:32:33.747Z,14.49
2017-08-12T07:33:33.731Z,14.48
2017-08-12T07:34:33.707Z,14.52
2017-08-12T07:35:33.086Z,14.54
2017-08-12T07:36:33.672Z,14.57
2017-08-12T07:37:33.651Z,14.54
2017-08-12T07:38:33.620Z,14.53
2017-08-12T07:39:33.557Z,14.63
2017-08-12T07:40:33.574Z,14.71
2017-08-12T07:41:33.560Z,14.61
2017-08-12T07:42:33.593Z,14.61
2017-08-12T07:43:33.518Z,14.61
2017-08-12T07:44:33.494Z,14.64
2017-08-12T07:45:33.473Z,14.63
2017-08-12T07:46:33.449Z,14.66
2017-08-12T07:47:33.429Z,14.6
2017-08-12T07:48:33.405Z,14.67
2017-08-12T07:49:33.380Z,14.74
2017-08-12T07:50:33.357Z,14.72
2017-08-12T07:51:33.346Z,14.69
2017-08-12T07:52:33.320Z,14.69
2017-08-12T07:53:33.302Z,14.67
2017-08-12T07:54:32.981Z,14.61
2017-08-12T07:55:33.259Z,14.69
2017-08-12T07:56:33.239Z,14.71
2017-08-12T07:57:33.217Z,14.64
2017-08-12T07:58:32.888Z,14.66
2017-08-12T07:59:33.225Z,14.6
2017-08-12T08:00:33.155Z,14.67
2017-08-12T08:01:33.125Z,14.67
2017-08-12T08:02:33.107Z,14.72
2017-08-12T08:03:33.088Z,14.71
2017-08-12T08:04:33.058Z,14.78
2017-08-12T08:05:33.037Z,14.79
2017-08-12T08:06:33.019Z,14.79
2017-08-12T08:07:33.001Z,14.79
2017-08-12T08:08:32.970Z,14.78
2017-08-12T08:09:32.960Z,14.8
2017-08-12T08:10:32.932Z,14.83
2017-08-12T08:11:32.906Z,14.8
2017-08-12T08:12:32.588Z,14.8
2017-08-12T08:13:32.879Z,14.82
2017-08-12T08:14:32.849Z,14.82
2017-08-12T08:15:32.829Z,14.85
2017-08-12T08:16:32.798Z,14.8
2017-08-12T08:17:32.792Z,14.8
2017-08-12T08:18:32.764Z,14.79
2017-08-12T08:19:32.792Z,14.8
2017-08-12T08:20:32.417Z,14.72
2017-08-12T08:21:32.702Z,14.72
2017-08-12T08:22:32.675Z,14.71
2017-08-12T08:23:32.652Z,14.72
2017-08-12T08:24:32.333Z,14.75
2017-08-12T08:25:32.631Z,14.83
2017-08-12T08:26:32.592Z,14.83
2017-08-12T08:27:32.570Z,14.75
2017-08-12T08:28:32.552Z,14.66
2017-08-12T08:29:32.520Z,14.78
2017-08-12T08:30:32.502Z,14.78
2017-08-12T08:31:32.490Z,14.83
2017-08-12T08:32:32.458Z,14.87
2017-08-12T08:33:32.434Z,14.82
2017-08-12T08:34:32.414Z,14.82
2017-08-12T08:35:32.391Z,14.94
2017-08-12T08:36:32.370Z,15
2017-08-12T08:37:32.354Z,14.98
2017-08-12T08:38:32.330Z,15.01
2017-08-12T08:39:32.321Z,15.04
2017-08-12T08:40:32.296Z,15.15
2017-08-12T08:41:32.267Z,15.2
2017-08-12T08:42:32.246Z,15.28
2017-08-12T08:43:32.234Z,15.35
2017-08-12T08:44:31.936Z,15.51
2017-08-12T08:45:32.187Z,15.52
2017-08-12T08:46:32.163Z,15.52
2017-08-12T08:47:32.146Z,15.56
2017-08-12T08:48:32.119Z,15.62
2017-08-12T08:49:32.100Z,15.6
2017-08-12T08:50:32.081Z,15.67
2017-08-12T08:51:32.056Z,15.7
2017-08-12T08:52:32.085Z,15.7
2017-08-12T08:53:32.015Z,15.73
2017-08-12T08:54:31.996Z,15.76
2017-08-12T08:55:31.980Z,15.78
2017-08-12T08:56:31.701Z,15.88
2017-08-12T08:57:31.938Z,15.89
2017-08-12T08:58:31.915Z,15.92
2017-08-12T08:59:31.895Z,15.89
2017-08-12T09:00:31.871Z,15.93
2017-08-12T09:01:31.849Z,15.93
2017-08-12T09:02:31.834Z,15.98
2017-08-12T09:03:31.804Z,16.08
2017-08-12T09:04:31.783Z,16.1
2017-08-12T09:05:31.464Z,16.08
2017-08-12T09:06:31.741Z,16.1
2017-08-12T09:07:31.725Z,16.25
2017-08-12T09:08:31.404Z,16.16
2017-08-12T09:09:31.731Z,16.11
2017-08-12T09:10:31.661Z,16.07
2017-08-12T09:11:31.643Z,16.08
2017-08-12T09:12:31.625Z,16.04
2017-08-12T09:13:31.596Z,16.11
2017-08-12T09:14:31.835Z,16.08
2017-08-12T09:15:31.566Z,16.06
2017-08-12T09:16:31.646Z,15.93
2017-08-12T09:17:31.517Z,15.95
2017-08-12T09:18:31.494Z,15.96
2017-08-12T09:19:31.473Z,15.96
2017-08-12T09:20:31.508Z,15.93
2017-08-12T09:21:31.435Z,15.98
2017-08-12T09:22:31.415Z,15.88
2017-08-12T09:23:31.410Z,15.91
2017-08-12T09:24:31.372Z,15.93
2017-08-12T09:25:31.356Z,15.86
2017-08-12T09:26:31.340Z,15.84
2017-08-12T09:27:31.314Z,15.96
2017-08-12T09:28:31.290Z,15.88
2017-08-12T09:29:31.272Z,15.91
2017-08-12T09:30:31.253Z,15.95
2017-08-12T09:31:31.226Z,16.01
2017-08-12T09:32:31.204Z,15.99
2017-08-12T09:33:31.192Z,15.99
2017-08-12T09:34:31.166Z,15.93
2017-08-12T09:35:30.847Z,15.92
2017-08-12T09:36:31.126Z,16.03
2017-08-12T09:37:30.813Z,15.98
2017-08-12T09:38:31.090Z,15.96
2017-08-12T09:39:31.067Z,15.93
2017-08-12T09:40:31.106Z,15.95
2017-08-12T09:41:31.036Z,15.96
2017-08-12T09:42:30.995Z,15.96
2017-08-12T09:43:30.989Z,16.01
2017-08-12T09:44:30.958Z,15.93
2017-08-12T09:45:30.937Z,16.01
2017-08-12T09:46:30.916Z,15.98
2017-08-12T09:47:30.891Z,15.86
2017-08-12T09:48:30.878Z,15.95
2017-08-12T09:49:30.856Z,15.91
2017-08-12T09:50:30.834Z,15.93
2017-08-12T09:51:30.817Z,15.93
2017-08-12T09:52:30.795Z,15.81
2017-08-12T09:53:30.774Z,15.89
2017-08-12T09:54:30.750Z,15.88
2017-08-12T09:55:30.734Z,15.84
2017-08-12T09:56:30.712Z,15.88
2017-08-12T09:57:30.688Z,15.99
2017-08-12T09:58:30.715Z,15.99
2017-08-12T09:59:30.648Z,15.95
2017-08-12T10:00:30.625Z,15.89
2017-08-12T10:01:30.608Z,15.84
2017-08-12T10:02:30.581Z,15.84
2017-08-12T10:03:30.565Z,15.89
2017-08-12T10:04:30.546Z,15.86
2017-08-12T10:05:30.529Z,15.85
2017-08-12T10:06:30.200Z,15.85
2017-08-12T10:07:30.485Z,15.88
2017-08-12T10:08:30.453Z,15.77
2017-08-12T10:09:30.438Z,15.92
2017-08-12T10:10:30.119Z,15.91
2017-08-12T10:11:30.404Z,15.92
2017-08-12T10:12:30.074Z,15.93
2017-08-12T10:13:30.356Z,16.01
2017-08-12T10:14:30.336Z,15.96
2017-08-12T10:15:30.310Z,15.89
2017-08-12T10:16:30.294Z,15.89
2017-08-12T10:17:29.969Z,15.89
2017-08-12T10:18:30.252Z,15.85
2017-08-12T10:19:30.224Z,15.89
2017-08-12T10:20:30.203Z,15.95
2017-08-12T10:21:30.184Z,15.92
2017-08-12T10:22:30.166Z,15.95
2017-08-12T10:23:30.143Z,15.98
2017-08-12T10:24:30.120Z,15.98
2017-08-12T10:25:30.111Z,15.98
2017-08-12T10:26:30.081Z,15.99
2017-08-12T10:27:30.066Z,16.03
2017-08-12T10:28:30.041Z,16.1
2017-08-12T10:29:30.016Z,16.04
2017-08-12T10:30:30.000Z,16.04
2017-08-12T10:31:29.975Z,16.06
2017-08-12T10:32:29.964Z,16.16
2017-08-12T10:33:29.939Z,16.07
2017-08-12T10:34:29.920Z,16.16
2017-08-12T10:35:29.895Z,16.16
2017-08-12T10:36:29.919Z,16.17
2017-08-12T10:37:29.856Z,16.25
2017-08-12T10:38:29.830Z,16.26
2017-08-12T10:39:29.812Z,16.23
2017-08-12T10:40:29.786Z,16.22
2017-08-12T10:41:29.775Z,16.26
2017-08-12T10:42:29.752Z,16.14
2017-08-12T10:43:29.721Z,16.23
2017-08-12T10:44:29.707Z,16.16
2017-08-12T10:45:29.385Z,16.11
2017-08-12T10:46:29.664Z,16.17
2017-08-12T10:47:29.648Z,16.16
2017-08-12T10:48:29.621Z,16.25
2017-08-12T10:49:29.654Z,16.16
2017-08-12T10:50:29.584Z,16.14
2017-08-12T10:51:29.566Z,16.17
2017-08-12T10:52:29.536Z,16.11
2017-08-12T10:53:29.224Z,16.07
2017-08-12T10:54:29.499Z,16.06
2017-08-12T10:55:29.473Z,16.06
2017-08-12T10:56:29.455Z,16.08
2017-08-12T10:57:29.437Z,16.04
2017-08-12T10:58:29.411Z,16.08
2017-08-12T10:59:29.392Z,16.11
2017-08-12T11:00:29.428Z,16.1
2017-08-12T11:01:30.072Z,16.18
2017-08-12T11:02:29.326Z,16.17
2017-08-12T11:03:29.316Z,16.17
2017-08-12T11:04:29.337Z,16.27
2017-08-12T11:05:29.266Z,16.26
2017-08-12T11:06:29.248Z,16.25
2017-08-12T11:07:29.229Z,16.18
2017-08-12T11:08:29.210Z,16.22
2017-08-12T11:09:29.185Z,16.16
2017-08-12T11:10:29.219Z,16.16
2017-08-12T11:11:29.147Z,16.13
2017-08-12T11:12:29.127Z,16.14
2017-08-12T11:13:29.104Z,16.07
2017-08-12T11:14:29.079Z,16.06
2017-08-12T11:15:29.062Z,16.13
2017-08-12T11:16:29.040Z,16.06
2017-08-12T11:17:29.021Z,16.07
2017-08-12T11:18:29.009Z,16.13
2017-08-12T11:19:28.989Z,16.26
2017-08-12T11:20:29.004Z,16.27
2017-08-12T11:21:28.947Z,16.27
2017-08-12T11:22:28.911Z,16.26
2017-08-12T11:23:28.891Z,16.18
2017-08-12T11:24:28.887Z,16.14
2017-08-12T11:25:28.903Z,16.26
2017-08-12T11:26:28.833Z,16.16
2017-08-12T11:27:28.809Z,16.26
2017-08-12T11:28:28.791Z,16.26
2017-08-12T11:29:28.819Z,16.26
2017-08-12T11:30:28.754Z,16.25
2017-08-12T11:31:28.735Z,16.22
2017-08-12T11:32:28.711Z,16.13
2017-08-12T11:33:28.682Z,16.25
2017-08-12T11:34:28.667Z,16.25
2017-08-12T11:35:28.692Z,16.25
2017-08-12T11:36:28.329Z,16.25
2017-08-12T11:37:28.319Z,16.23
2017-08-12T11:38:28.584Z,16.25
2017-08-12T11:39:28.556Z,16.26
2017-08-12T11:40:28.544Z,16.25
2017-08-12T11:41:28.520Z,16.3
2017-08-12T11:42:28.501Z,16.34
2017-08-12T11:43:28.494Z,16.4
2017-08-12T11:44:28.464Z,16.45
2017-08-12T11:45:28.442Z,16.48
2017-08-12T11:46:28.422Z,16.6
2017-08-12T11:47:28.395Z,16.62
2017-08-12T11:48:28.380Z,16.69
2017-08-12T11:49:28.360Z,16.69
2017-08-12T11:50:28.032Z,16.62
2017-08-12T11:51:28.020Z,16.67
2017-08-12T11:52:28.001Z,16.67
2017-08-12T11:53:28.268Z,16.69
2017-08-12T11:54:28.252Z,16.69
2017-08-12T11:55:28.228Z,16.67
2017-08-12T11:56:28.210Z,16.77
2017-08-12T11:57:28.217Z,16.82
2017-08-12T11:58:28.168Z,16.72
2017-08-12T11:59:28.398Z,16.78
2017-08-12T12:00:28.127Z,16.81
2017-08-12T12:01:27.806Z,16.84
2017-08-12T12:02:28.109Z,16.73
2017-08-12T12:03:28.069Z,16.72
2017-08-12T12:04:28.047Z,16.78
2017-08-12T12:05:28.027Z,16.75
2017-08-12T12:06:28.000Z,16.73
2017-08-12T12:07:27.981Z,16.78
2017-08-12T12:08:27.973Z,16.78
2017-08-12T12:09:27.941Z,16.69
2017-08-12T12:10:27.930Z,16.8
2017-08-12T12:11:27.907Z,16.77
2017-08-12T12:12:27.880Z,16.87
2017-08-12T12:13:27.923Z,16.78
2017-08-12T12:14:27.840Z,16.9
2017-08-12T12:15:27.823Z,16.84
2017-08-12T12:16:27.802Z,16.8
2017-08-12T12:17:27.775Z,16.84
2017-08-12T12:18:27.457Z,16.85
2017-08-12T12:19:27.738Z,16.87
2017-08-12T12:20:27.723Z,16.85
2017-08-12T12:21:27.705Z,16.82
2017-08-12T12:22:27.675Z,16.87
2017-08-12T12:23:27.705Z,16.9
2017-08-12T12:24:27.640Z,16.85
2017-08-12T12:25:27.616Z,16.88
2017-08-12T12:26:27.293Z,16.85
2017-08-12T12:27:27.575Z,16.85
2017-08-12T12:28:27.553Z,16.82
2017-08-12T12:29:27.546Z,16.8
2017-08-12T12:30:27.507Z,16.82
2017-08-12T12:31:27.492Z,16.87
2017-08-12T12:32:27.168Z,16.87
2017-08-12T12:33:27.451Z,16.85
2017-08-12T12:34:27.430Z,16.87
2017-08-12T12:35:27.410Z,16.85
2017-08-12T12:36:27.387Z,16.88
2017-08-12T12:37:27.357Z,16.92
2017-08-12T12:38:27.352Z,16.85
2017-08-12T12:39:27.331Z,16.91
2017-08-12T12:40:27.315Z,16.88
2017-08-12T12:41:27.287Z,16.95
2017-08-12T12:42:27.270Z,16.9
2017-08-12T12:43:27.243Z,16.99
2017-08-12T12:44:27.223Z,16.99
2017-08-12T12:45:27.205Z,17
2017-08-12T12:46:27.182Z,16.99
2017-08-12T12:47:27.160Z,17.03
2017-08-12T12:48:27.146Z,17.05
2017-08-12T12:49:27.117Z,17.02
2017-08-12T12:50:26.829Z,17.05
2017-08-12T12:51:27.084Z,17
2017-08-12T12:52:27.064Z,17.02
2017-08-12T12:53:26.744Z,17.09
2017-08-12T12:54:26.725Z,17.07
2017-08-12T12:55:27.006Z,17.09